Meteo Giornale » Osservazioni meteo Italia » Bologna-Borgo Panigale

ore: 16:50 - Osservazioni Meteo Bologna-Borgo Panigale
Lat. 44° 32' N Lon. 11° 18' E Alt. 36 metri s.l.m.

molto_nuvoloso Europe/Rome

20 °C

Molto Nuvoloso

Temp. 24 Ore

17 °C

27 °C

Sud

9.3 Km/h

Dew point 18 °C

Umidità 88 %

Visibilità  10 Km

Il sole sorge alle ore 07:01

Il sole tramonta alle ore 19:13

Data e Ora Cielo e Fenomeni T °C DP °C Um. % Pres. hPa Vis. km Vento km/h
Oggi h: 16:50 molto_nuvoloso Molto Nuvoloso 20 18 88 1013 10 S 9.3
Oggi h: 16:20 coperto_pioggia Pioggia Debole 19 17 88 1013 10 E/SE 9.3
Oggi h: 15:50 coperto_pioggia Pioggia Debole 19 17 88 1013 10 S/SO 13
Oggi h: 15:20 coperto_pioggia Pioggia Debole 20 18 88 1013 7 SO 18.5
Oggi h: 14:50 nuvoloso Nuvoloso 24 17 64 1013 10 N 5.5
Oggi h: 14:20 nuvoloso Nuvoloso 24 17 64 1013 10 N 9.3
Oggi h: 13:50 nuvoloso Nuvoloso 24 17 64 1014 10 E 7.4
Oggi h: 13:20 nuvoloso Nuvoloso 25 18 65 1014 10 N 7.4
Oggi h: 12:50 nuvoloso Nuvoloso 24 18 69 1014 10 E 7.4
Oggi h: 12:20 nuvoloso Nuvoloso 23 18 73 1014 10 N 9.3
Oggi h: 11:50 sereno Sereno 23 18 73 1015 10 N 5.5
Oggi h: 11:20 sereno Sereno 23 17 68 1015 10 N 3.7
Oggi h: 10:50 sereno Sereno 22 17 73 1015 10 N 3.7
Oggi h: 10:20 sereno Sereno 20 16 77 1015 10 N 5.5
Oggi h: 09:50 sereno Sereno 20 17 82 1015 10 N 5.5
Oggi h: 09:20 poco_nuvoloso Poco Nuvoloso 19 16 82 1015 10 N 3.7
Oggi h: 08:50 nuvoloso Nuvoloso 18 16 88 1015 10 S/SO 7.4
Oggi h: 08:20 nuvoloso Nuvoloso 18 16 88 1015 10 N 5.5
Oggi h: 07:50 sereno Sereno 17 16 93 1014 10 S/SO 9.3
Oggi h: 07:20 sereno Sereno 17 16 93 1014 10 S 7.4
Oggi h: 06:50 sereno Sereno 17 16 93 1014 10 N 3.7
Oggi h: 06:20 sereno Sereno 17 16 93 1014 10 S/SO 7.4
Oggi h: 05:50 sereno Sereno 17 16 93 1014 10 S/SO 7.4
Oggi h: 05:20 poco_nuvoloso Poco Nuvoloso 17 16 93 1015 10 S 9.3
Oggi h: 04:50 poco_nuvoloso Poco Nuvoloso 17 16 93 1015 10 S/SO 11.1
Oggi h: 04:20 nuvoloso Nuvoloso 17 17 100 1015 10 SO 7.4
Oggi h: 03:20 nuvoloso Nuvoloso 17 17 100 1015 10 S 9.3
Oggi h: 02:50 poco_nuvoloso Poco Nuvoloso 18 17 93 1015 10 S/SO 11.1
Oggi h: 02:20 sereno Sereno 17 17 100 1015 10 N 5.5
Oggi h: 01:50 sereno Sereno 18 17 93 1015 10 N 5.5
Oggi h: 01:20 sereno Sereno 18 17 93 1016 10 N 3.7
Oggi h: 00:50 sereno Sereno 18 17 93 1015 10 N 3.7
Oggi h: 00:20 sereno Sereno 19 18 93 1016 10 N 3.7
Ieri h: 23:50 sereno Sereno 19 17 88 1016 10 N 3.7
Ieri h: 23:20 sereno Sereno 18 17 93 1016 10 N 5.5
Ieri h: 22:50 sereno Sereno 19 17 88 1015 10 N 3.7
Ieri h: 22:20 poco_nuvoloso Poco Nuvoloso 19 17 88 1015 10 SO 7.4
Ieri h: 21:50 poco_nuvoloso Poco Nuvoloso 19 18 93 1015 10 S 11.1
Ieri h: 21:20 coperto_pioggia Pioggia Debole 19 17 88 1015 10 N 5.5
Ieri h: 20:50 coperto_pioggia Pioggia 19 17 88 1015 8 S/SE 9.3
Ieri h: 20:20 coperto_pioggia Pioggia 19 17 88 1015 7 S/SE 9.3
Ieri h: 19:50 nuvoloso_temporali Temporale con Pioggia Debole 19 17 88 1015 6 E/SE 9.3
Ieri h: 19:20 nuvoloso_temporali Temporale con Pioggia 19 17 88 1015 5 SE 13
Ieri h: 18:50 nuvoloso_temporali Temporale con Pioggia 20 17 82 1015 4 N 16.7
Ieri h: 17:50 nuvoloso Rovescio nelle Vicinanze 27 17 54 1014 10 N 9.3